aviador You're here:

EKKA Decoded Metar

KARUP in DENMARK
Report Time2017-12-15 19:20:00
UTC Time2017-12-15 19:40:51
Flight Rules mvfr MVFR
Wind220° at 07 kt
W.Decomp.*RWY 22: 7.0 kt HW 0.1 kt LCW
RWY 27: 4.4 kt HW 5.4 kt LCW
RWY 14: 1.3 kt HW 6.9 kt RCW
W.Rank220° ranks 3
Current wind is below 220° avg. (7.9)
Visibility9999 m
Phenomena:N/A
Clouds:Broken 026 Hf
Expected CloudBase > 400 ft AGL from Temp-Dew spread
Ceiling2,600 ft
Temp02°C (ISA -13)
Dew Point01°C (93% RH)
AAT-2.4°C
QNH0995 hPa
Density Alt-659 ft
Elevation171 ft
Report Wrong Elevation
Raw Report
EKKA 151920Z AUTO 22007KT 9999NDV BKN026/// 02/01 Q0995
R27L/290095=

Extra information for EKKA:More info

Metar Taf Metar & Taf Last 4 Metars F.Rules Stats Wind Profile Meteogram Temp Stats Airport Information Weather charts Add Link Nearby VenuesMetar ALERT Operation Metar Decoded Social comments